createdAt,value
2022-07-31T00:00:25.174Z,100071.85
2022-07-31T00:01:33.865Z,100068.09
2022-07-31T00:02:44.844Z,100068.09
2022-07-31T00:03:49.631Z,100065.36
2022-07-31T00:04:53.697Z,100065.56
2022-07-31T00:05:57.778Z,100062.66
2022-07-31T00:07:02.418Z,100062.66
2022-07-31T00:08:06.996Z,100058.03
2022-07-31T00:09:45.346Z,100058.03
2022-07-31T00:10:22.717Z,100063.48
2022-07-31T00:11:26.846Z,100063.48
2022-07-31T00:12:31.087Z,100054.29
2022-07-31T00:13:56.471Z,100048.00
2022-07-31T00:14:45.613Z,100049.27
2022-07-31T00:15:49.681Z,100050.16
2022-07-31T00:16:53.721Z,100050.16
2022-07-31T00:17:57.642Z,100049.33
2022-07-31T00:19:03.155Z,100051.42
2022-07-31T00:20:10.307Z,100048.13
2022-07-31T00:21:15.970Z,100048.13
2022-07-31T00:22:25.013Z,100043.99
2022-07-31T00:23:25.997Z,100039.38
2022-07-31T00:24:34.331Z,100039.38
2022-07-31T00:25:38.603Z,100038.16
2022-07-31T00:26:43.461Z,100038.16
2022-07-31T00:27:47.825Z,100044.68
2022-07-31T00:28:53.455Z,100033.78
2022-07-31T00:29:57.804Z,100042.39
2022-07-31T00:31:04.670Z,100042.39
2022-07-31T00:32:08.805Z,100036.94
2022-07-31T00:33:15.033Z,100038.00
2022-07-31T00:34:19.081Z,100036.94
2022-07-31T00:35:26.953Z,100041.33
2022-07-31T00:36:32.618Z,100037.14
2022-07-31T00:37:38.259Z,100037.57
2022-07-31T00:38:45.459Z,100037.57
2022-07-31T00:39:51.050Z,100036.70
2022-07-31T00:40:55.237Z,100036.70
2022-07-31T00:42:04.688Z,100031.88
2022-07-31T00:43:07.058Z,100031.88
2022-07-31T00:44:15.066Z,100036.90
2022-07-31T00:45:25.944Z,100040.06
2022-07-31T00:46:25.107Z,100035.47
2022-07-31T00:47:29.258Z,100035.28
2022-07-31T00:48:34.798Z,100031.69
2022-07-31T00:49:40.611Z,100031.69
2022-07-31T00:50:46.145Z,100027.31
2022-07-31T00:52:15.507Z,99998.88
2022-07-31T00:52:59.514Z,100029.64
2022-07-31T00:54:05.320Z,100029.64
2022-07-31T00:55:09.835Z,100027.78
2022-07-31T00:56:15.334Z,100027.58
2022-07-31T00:57:19.360Z,100027.58
2022-07-31T00:58:23.483Z,100032.83
2022-07-31T00:59:28.799Z,100032.83
2022-07-31T01:00:34.445Z,100029.49
2022-07-31T01:01:38.577Z,100026.77
2022-07-31T01:02:46.497Z,100026.77
2022-07-31T01:03:49.126Z,100030.92
2022-07-31T01:04:53.175Z,100035.97
2022-07-31T01:05:59.115Z,100033.66
2022-07-31T01:07:04.166Z,100034.31
2022-07-31T01:08:10.065Z,100030.75
2022-07-31T01:09:14.280Z,100033.87
2022-07-31T01:10:21.570Z,100025.08
2022-07-31T01:11:31.548Z,100025.08
2022-07-31T01:12:45.752Z,100023.62
2022-07-31T01:13:57.829Z,100021.52
2022-07-31T01:15:03.123Z,100021.75
2022-07-31T01:16:11.681Z,100028.25
2022-07-31T01:17:17.191Z,100023.21
2022-07-31T01:18:23.942Z,100023.21
2022-07-31T01:19:42.663Z,100027.20
2022-07-31T01:20:47.356Z,100027.20
2022-07-31T01:22:00.112Z,100019.66
2022-07-31T01:23:20.287Z,100019.66
2022-07-31T01:24:27.305Z,100017.77
2022-07-31T01:25:42.571Z,100021.34
2022-07-31T01:26:52.061Z,100016.95
2022-07-31T01:28:19.801Z,100016.95
2022-07-31T01:29:29.593Z,100019.67
2022-07-31T01:31:10.702Z,100015.08
2022-07-31T01:32:10.558Z,100011.50
2022-07-31T01:33:17.531Z,100011.92
2022-07-31T01:34:24.561Z,100011.92
2022-07-31T01:35:31.202Z,100011.52
2022-07-31T01:36:39.736Z,100010.69
2022-07-31T01:37:49.459Z,100010.69
2022-07-31T01:38:56.455Z,100017.39
2022-07-31T01:40:12.526Z,100002.30
2022-07-31T01:41:20.490Z,100009.02
2022-07-31T01:42:28.213Z,100009.02
2022-07-31T01:43:36.766Z,100002.94
2022-07-31T01:45:33.846Z,100002.30
2022-07-31T01:45:56.656Z,100002.30
2022-07-31T01:47:08.603Z,100003.36
2022-07-31T01:48:12.471Z,100008.17
2022-07-31T01:49:18.188Z,99996.86
2022-07-31T01:50:43.048Z,99996.86
2022-07-31T01:51:34.279Z,100004.83
2022-07-31T01:52:40.780Z,100006.08
2022-07-31T01:53:47.322Z,100005.02
2022-07-31T01:54:53.987Z,100005.02
2022-07-31T01:56:03.390Z,100007.53
2022-07-31T01:57:07.921Z,100002.31
2022-07-31T01:58:13.367Z,100001.02
2022-07-31T01:59:22.955Z,100004.98
2022-07-31T02:00:33.405Z,100004.98
2022-07-31T02:01:34.501Z,99998.94
2022-07-31T02:02:42.282Z,99993.89
2022-07-31T02:03:48.231Z,99992.66
2022-07-31T02:04:54.138Z,99994.33
2022-07-31T02:05:58.954Z,99994.33
2022-07-31T02:07:04.147Z,99986.36
2022-07-31T02:08:11.095Z,99986.36
2022-07-31T02:09:17.744Z,99993.05
2022-07-31T02:10:25.229Z,99995.38
2022-07-31T02:11:29.894Z,99989.30
2022-07-31T02:12:37.562Z,99998.52
2022-07-31T02:13:42.270Z,99998.52
2022-07-31T02:14:47.881Z,99997.03
2022-07-31T02:15:54.533Z,99997.03
2022-07-31T02:16:59.639Z,99999.33
2022-07-31T02:18:04.897Z,100002.69
2022-07-31T02:19:12.051Z,100001.03
2022-07-31T02:20:18.884Z,100006.47
2022-07-31T02:21:24.574Z,100001.03
2022-07-31T02:22:28.824Z,99995.59
2022-07-31T02:23:35.121Z,99993.89
2022-07-31T02:24:39.735Z,99993.89
2022-07-31T02:25:45.451Z,99996.62
2022-07-31T02:26:50.178Z,100003.52
2022-07-31T02:27:57.685Z,100003.52
2022-07-31T02:29:04.913Z,100001.88
2022-07-31T02:30:11.749Z,100006.50
2022-07-31T02:31:18.720Z,100013.39
2022-07-31T02:32:25.431Z,100010.67
2022-07-31T02:33:29.934Z,100004.38
2022-07-31T02:34:36.148Z,100006.08
2022-07-31T02:35:44.324Z,100005.66
2022-07-31T02:36:49.741Z,100005.66
2022-07-31T02:37:55.869Z,100011.51
2022-07-31T02:39:01.910Z,100013.16
2022-07-31T02:40:09.357Z,100014.19
2022-07-31T02:41:15.307Z,100016.05
2022-07-31T02:42:21.219Z,100010.17
2022-07-31T02:43:27.756Z,100016.45
2022-07-31T02:44:33.341Z,100018.11
2022-07-31T02:45:38.242Z,100017.68
2022-07-31T02:46:44.256Z,100018.31
2022-07-31T02:47:49.830Z,100014.28
2022-07-31T02:48:54.356Z,100015.14
2022-07-31T02:49:58.596Z,100019.48
2022-07-31T02:51:02.928Z,100013.77
2022-07-31T02:52:07.671Z,100019.60
2022-07-31T02:53:13.789Z,100019.09
2022-07-31T02:54:18.533Z,100019.09
2022-07-31T02:55:23.070Z,100015.07
2022-07-31T02:56:30.618Z,100019.39
2022-07-31T02:57:34.592Z,100019.39
2022-07-31T02:58:42.116Z,100014.82
2022-07-31T02:59:50.359Z,100014.82
2022-07-31T03:01:06.825Z,100021.86
2022-07-31T03:02:13.653Z,100016.36
2022-07-31T03:03:17.692Z,100017.03
2022-07-31T03:04:22.110Z,100016.36
2022-07-31T03:05:26.211Z,100016.36
2022-07-31T03:06:31.740Z,100022.19
2022-07-31T03:07:35.854Z,100022.19
2022-07-31T03:08:39.867Z,100014.39
2022-07-31T03:09:45.827Z,100019.55
2022-07-31T03:10:50.648Z,100019.59
2022-07-31T03:11:54.840Z,100022.55
2022-07-31T03:12:59.940Z,100022.39
2022-07-31T03:14:07.124Z,100022.28
2022-07-31T03:15:15.865Z,100022.28
2022-07-31T03:16:21.448Z,100018.00
2022-07-31T03:17:38.178Z,99862.83
2022-07-31T03:18:32.694Z,100018.52
2022-07-31T03:19:37.199Z,100018.52
2022-07-31T03:20:42.817Z,100020.03
2022-07-31T03:21:48.211Z,100020.03
2022-07-31T03:22:52.421Z,100028.91
2022-07-31T03:23:57.035Z,100027.31
2022-07-31T03:25:03.148Z,100025.24
2022-07-31T03:26:10.931Z,100035.06
2022-07-31T03:27:14.990Z,100030.41
2022-07-31T03:28:20.412Z,100027.20
2022-07-31T03:29:43.392Z,100027.40
2022-07-31T03:30:33.196Z,100021.52
2022-07-31T03:31:38.702Z,100023.00
2022-07-31T03:32:42.724Z,100023.00
2022-07-31T03:33:47.445Z,100021.29
2022-07-31T03:34:52.851Z,100029.42
2022-07-31T03:35:56.948Z,100029.42
2022-07-31T03:37:01.098Z,100019.77
2022-07-31T03:38:38.890Z,100025.45
2022-07-31T03:39:12.271Z,100026.68
2022-07-31T03:40:17.912Z,100026.68
2022-07-31T03:41:22.059Z,100029.66
2022-07-31T03:42:27.988Z,100028.41
2022-07-31T03:43:45.556Z,100028.41
2022-07-31T03:44:41.308Z,100026.83
2022-07-31T03:45:46.513Z,100026.18
2022-07-31T03:46:50.713Z,100025.55
2022-07-31T03:47:55.339Z,100025.55
2022-07-31T03:49:00.237Z,99999.61
2022-07-31T03:50:05.289Z,100028.05
2022-07-31T03:51:10.919Z,100028.05
2022-07-31T03:52:15.443Z,100021.92
2022-07-31T03:53:20.029Z,100021.20
2022-07-31T03:54:24.151Z,100030.18
2022-07-31T03:55:29.900Z,100030.45
2022-07-31T03:56:38.181Z,100030.45
2022-07-31T03:57:43.000Z,100028.66
2022-07-31T03:58:52.448Z,100026.30
2022-07-31T03:59:56.984Z,100029.92
2022-07-31T04:01:03.211Z,100033.84
2022-07-31T04:02:09.722Z,100024.20
2022-07-31T04:03:16.341Z,100037.72
2022-07-31T04:04:21.918Z,100037.72
2022-07-31T04:05:28.027Z,100028.13
2022-07-31T04:06:32.193Z,100029.55
2022-07-31T04:07:37.751Z,100032.85
2022-07-31T04:08:43.397Z,100032.85
2022-07-31T04:09:47.554Z,100032.85
2022-07-31T04:10:51.734Z,100041.72
2022-07-31T04:11:55.920Z,100028.17
2022-07-31T04:13:00.077Z,100023.21
2022-07-31T04:14:04.104Z,100018.50
2022-07-31T04:15:08.429Z,100021.01
2022-07-31T04:16:13.866Z,100021.01
2022-07-31T04:17:17.847Z,100023.48
2022-07-31T04:18:21.869Z,100021.01
2022-07-31T04:19:25.833Z,100015.74
2022-07-31T04:20:30.883Z,100019.89
2022-07-31T04:21:36.861Z,100022.09
2022-07-31T04:22:42.409Z,100017.95
2022-07-31T04:23:49.929Z,100017.95
2022-07-31T04:24:52.671Z,100024.83
2022-07-31T04:25:56.750Z,100023.42
2022-07-31T04:27:03.449Z,100026.44
2022-07-31T04:28:06.636Z,100023.91
2022-07-31T04:29:10.748Z,100023.91
2022-07-31T04:30:17.931Z,100024.13
2022-07-31T04:31:21.065Z,100024.13
2022-07-31T04:32:25.667Z,100019.61
2022-07-31T04:33:32.252Z,100023.70
2022-07-31T04:34:41.229Z,100016.17
2022-07-31T04:35:42.030Z,100016.17
2022-07-31T04:36:46.094Z,100015.59
2022-07-31T04:37:50.154Z,100010.93
2022-07-31T04:38:55.785Z,100005.69
2022-07-31T04:39:59.816Z,100011.20
2022-07-31T04:41:11.547Z,100009.25
2022-07-31T04:42:15.370Z,100012.61
2022-07-31T04:43:19.391Z,100012.61
2022-07-31T04:44:25.135Z,99997.38
2022-07-31T04:45:30.570Z,100019.45
2022-07-31T04:46:36.218Z,100015.28
2022-07-31T04:47:42.732Z,100015.28
2022-07-31T04:48:46.778Z,100011.62
2022-07-31T04:49:52.492Z,100015.94
2022-07-31T04:50:56.460Z,100015.94
2022-07-31T04:52:01.631Z,100012.85
2022-07-31T04:53:06.073Z,100011.41
2022-07-31T04:54:14.084Z,100014.22
2022-07-31T04:55:18.104Z,100011.14
2022-07-31T04:56:22.988Z,100008.31
2022-07-31T04:57:27.412Z,100014.02
2022-07-31T04:58:31.463Z,100014.02
2022-07-31T04:59:59.555Z,100011.73
2022-07-31T05:00:41.149Z,100013.38
2022-07-31T05:01:45.666Z,100017.97
2022-07-31T05:02:49.935Z,100017.97
2022-07-31T05:03:54.104Z,100009.45
2022-07-31T05:04:58.199Z,100009.92
2022-07-31T05:06:12.735Z,100005.78
2022-07-31T05:07:16.750Z,100007.58
2022-07-31T05:08:20.803Z,100008.20
2022-07-31T05:09:25.623Z,100008.20
2022-07-31T05:10:34.876Z,100011.48
2022-07-31T05:11:39.685Z,100009.30
2022-07-31T05:12:43.702Z,100003.13
2022-07-31T05:13:47.865Z,100008.05
2022-07-31T05:14:51.941Z,100013.15
2022-07-31T05:15:55.988Z,100013.15
2022-07-31T05:17:03.507Z,100012.80
2022-07-31T05:18:06.168Z,100009.92
2022-07-31T05:19:13.616Z,100009.92
2022-07-31T05:20:17.594Z,100010.70
2022-07-31T05:21:22.788Z,100001.32
2022-07-31T05:22:26.901Z,100003.81
2022-07-31T05:23:31.016Z,100003.81
2022-07-31T05:24:38.162Z,100002.69
2022-07-31T05:25:43.677Z,100002.59
2022-07-31T05:26:47.646Z,100002.59
2022-07-31T05:27:51.575Z,99999.47
2022-07-31T05:28:58.516Z,100006.69
2022-07-31T05:30:04.257Z,100001.14
2022-07-31T05:31:09.059Z,100003.78
2022-07-31T05:32:14.765Z,100003.78
2022-07-31T05:33:19.087Z,100011.64
2022-07-31T05:34:29.030Z,100002.23
2022-07-31T05:35:34.241Z,99996.64
2022-07-31T05:36:40.576Z,100008.39
2022-07-31T05:37:44.542Z,100008.39
2022-07-31T05:38:56.900Z,100003.50
2022-07-31T05:39:56.984Z,100003.50
2022-07-31T05:41:01.065Z,100004.66
2022-07-31T05:42:05.812Z,100002.69
2022-07-31T05:43:10.136Z,100002.69
2022-07-31T05:44:14.084Z,100004.01
2022-07-31T05:45:19.622Z,100004.01
2022-07-31T05:46:25.221Z,99997.96
2022-07-31T05:47:40.091Z,99997.96
2022-07-31T05:48:38.596Z,99996.91
2022-07-31T05:49:43.104Z,99991.41
2022-07-31T05:50:49.732Z,99991.41
2022-07-31T05:51:53.773Z,99995.31
2022-07-31T05:52:57.935Z,99995.31
2022-07-31T05:54:02.026Z,99998.09
2022-07-31T05:55:06.517Z,99992.27
2022-07-31T05:56:11.489Z,99997.08
2022-07-31T05:57:33.444Z,99997.08
2022-07-31T05:58:30.405Z,100001.64
2022-07-31T05:59:34.447Z,100004.95
2022-07-31T06:00:39.049Z,100004.95
2022-07-31T06:01:43.219Z,99994.45
2022-07-31T06:02:49.518Z,100005.11
2022-07-31T06:03:53.216Z,100002.87
2022-07-31T06:04:58.436Z,100002.87
2022-07-31T06:06:04.255Z,100010.02
2022-07-31T06:07:09.758Z,100002.87
2022-07-31T06:08:16.929Z,100002.87
2022-07-31T06:09:20.985Z,100002.87
2022-07-31T06:10:27.068Z,100006.52
2022-07-31T06:11:31.211Z,100002.92
2022-07-31T06:12:37.871Z,100002.92
2022-07-31T06:13:41.916Z,100004.05
2022-07-31T06:14:46.089Z,100004.64
2022-07-31T06:15:54.654Z,100004.64
2022-07-31T06:17:00.278Z,100015.23
2022-07-31T06:18:05.261Z,100015.23
2022-07-31T06:19:09.221Z,100001.95
2022-07-31T06:20:15.238Z,100001.95
2022-07-31T06:22:22.002Z,99725.24
2022-07-31T06:23:29.878Z,100006.52
2022-07-31T06:24:31.810Z,100002.08
2022-07-31T06:25:41.359Z,100002.08
2022-07-31T06:26:45.566Z,99992.12
2022-07-31T06:27:52.340Z,99989.89
2022-07-31T06:28:59.515Z,99989.89
2022-07-31T06:30:12.847Z,99996.26
2022-07-31T06:31:23.269Z,99990.41
2022-07-31T06:32:29.458Z,99990.41
2022-07-31T06:33:37.907Z,100001.45
2022-07-31T06:34:39.211Z,99999.19
2022-07-31T06:35:43.301Z,99996.22
2022-07-31T06:36:47.544Z,99998.17
2022-07-31T06:37:51.673Z,100001.50
2022-07-31T06:38:55.707Z,99992.55
2022-07-31T06:40:01.341Z,99992.55
2022-07-31T06:41:06.931Z,99990.09
2022-07-31T06:42:10.885Z,100001.50
2022-07-31T06:43:14.856Z,99992.98
2022-07-31T06:44:20.574Z,99991.71
2022-07-31T06:45:41.912Z,99994.00
2022-07-31T06:46:31.449Z,99988.45
2022-07-31T06:47:37.316Z,99988.45
2022-07-31T06:48:42.891Z,99985.90
2022-07-31T06:49:47.001Z,99971.77
2022-07-31T06:50:54.188Z,99976.97
2022-07-31T06:51:58.184Z,99975.56
2022-07-31T06:53:02.227Z,99976.92
2022-07-31T06:54:08.823Z,99973.30
2022-07-31T06:55:15.391Z,99973.30
2022-07-31T06:56:19.613Z,99966.58
2022-07-31T06:57:23.730Z,99970.17
2022-07-31T06:58:27.938Z,99972.09
2022-07-31T06:59:40.251Z,99971.69
2022-07-31T07:00:38.221Z,99963.41
2022-07-31T07:01:42.368Z,99963.41
2022-07-31T07:02:49.045Z,99964.31
2022-07-31T07:03:53.955Z,99965.40
2022-07-31T07:05:05.882Z,99967.90
2022-07-31T07:06:05.539Z,99960.13
2022-07-31T07:07:09.614Z,99962.33
2022-07-31T07:08:13.620Z,99958.07
2022-07-31T07:09:17.645Z,99958.07
2022-07-31T07:10:23.232Z,99969.66
2022-07-31T07:11:28.495Z,99957.20
2022-07-31T07:12:32.562Z,99970.44
2022-07-31T07:13:45.264Z,99970.44
2022-07-31T07:14:47.088Z,99956.78
2022-07-31T07:15:51.734Z,99958.31
2022-07-31T07:16:56.126Z,99953.81
2022-07-31T07:18:01.615Z,99953.81
2022-07-31T07:19:05.633Z,99952.91
2022-07-31T07:20:10.493Z,99955.09
2022-07-31T07:21:14.628Z,99963.67
2022-07-31T07:22:18.625Z,99975.09
2022-07-31T07:23:24.516Z,99975.09
2022-07-31T07:24:30.086Z,99954.99
2022-07-31T07:25:35.703Z,99959.44
2022-07-31T07:26:39.794Z,99954.52
2022-07-31T07:27:43.757Z,99930.27
2022-07-31T07:28:47.949Z,99953.46
2022-07-31T07:29:51.915Z,99953.46
2022-07-31T07:30:56.398Z,99954.63
2022-07-31T07:32:00.525Z,99951.31
2022-07-31T07:33:04.652Z,99959.66
2022-07-31T07:34:08.626Z,99958.05
2022-07-31T07:35:14.207Z,99947.52
2022-07-31T07:36:24.211Z,99947.52
2022-07-31T07:37:28.148Z,99946.14
2022-07-31T07:38:32.237Z,99946.00
2022-07-31T07:39:40.346Z,99946.00
2022-07-31T07:40:44.697Z,99953.11
2022-07-31T07:41:48.952Z,99945.11
2022-07-31T07:42:54.000Z,99951.58
2022-07-31T07:43:59.683Z,99948.98
2022-07-31T07:45:08.552Z,99943.16
2022-07-31T07:46:12.309Z,99943.16
2022-07-31T07:47:16.415Z,99944.74
2022-07-31T07:48:20.533Z,99943.38
2022-07-31T07:49:24.591Z,99943.38
2022-07-31T07:50:30.220Z,99961.94
2022-07-31T07:51:34.179Z,99951.41
2022-07-31T07:52:43.543Z,99951.41
2022-07-31T07:53:44.401Z,99948.30
2022-07-31T07:55:03.120Z,99948.30
2022-07-31T07:56:05.667Z,99949.42
2022-07-31T07:57:07.795Z,99949.46
2022-07-31T07:58:12.253Z,99958.59
2022-07-31T07:59:16.364Z,99953.63
2022-07-31T08:00:29.701Z,99953.63
2022-07-31T08:01:33.940Z,99944.23
2022-07-31T08:02:38.123Z,99949.77
2022-07-31T08:03:49.568Z,99946.45
2022-07-31T08:04:47.837Z,99938.08
2022-07-31T08:05:56.141Z,99938.08
2022-07-31T08:07:00.239Z,99947.23
2022-07-31T08:08:04.449Z,99947.23
2022-07-31T08:09:08.436Z,99939.71
2022-07-31T08:10:12.907Z,99935.58
2022-07-31T08:11:17.983Z,99932.22
2022-07-31T08:12:22.290Z,99948.50
2022-07-31T08:13:26.315Z,99941.90
2022-07-31T08:14:30.471Z,99939.16
2022-07-31T08:15:34.417Z,99946.86
2022-07-31T08:16:38.568Z,99946.86
2022-07-31T08:17:42.593Z,99929.65
2022-07-31T08:18:48.918Z,99929.65
2022-07-31T08:19:53.029Z,99934.03
2022-07-31T08:20:59.286Z,99943.13
2022-07-31T08:22:07.479Z,99948.58
2022-07-31T08:23:11.732Z,99934.38
2022-07-31T08:24:18.579Z,99931.87
2022-07-31T08:25:22.669Z,99938.00
2022-07-31T08:26:28.384Z,99931.16
2022-07-31T08:27:40.175Z,99924.32
2022-07-31T08:28:41.702Z,99929.25
2022-07-31T08:29:47.566Z,99927.57
2022-07-31T08:30:53.131Z,99936.39
2022-07-31T08:31:58.722Z,99925.79
2022-07-31T08:33:02.801Z,99927.42
2022-07-31T08:34:06.851Z,99927.66
2022-07-31T08:35:10.836Z,99927.66
2022-07-31T08:36:15.362Z,99929.89
2022-07-31T08:38:02.710Z,99929.89
2022-07-31T08:38:25.360Z,99924.61
2022-07-31T08:39:29.325Z,99927.58
2022-07-31T08:40:34.950Z,99610.93
2022-07-31T08:41:42.489Z,99920.09
2022-07-31T08:42:47.497Z,99911.45
2022-07-31T08:44:01.685Z,99911.45
2022-07-31T08:44:57.430Z,99926.64
2022-07-31T08:46:03.210Z,99875.17
2022-07-31T08:47:08.941Z,99929.77
2022-07-31T08:48:13.818Z,99922.63
2022-07-31T08:49:20.839Z,99938.98
2022-07-31T08:50:26.989Z,99922.47
2022-07-31T08:51:51.329Z,99922.47
2022-07-31T08:52:45.119Z,99926.80
2022-07-31T08:53:55.854Z,99922.90
2022-07-31T08:55:01.568Z,99918.13
2022-07-31T08:56:10.981Z,99921.22
2022-07-31T08:57:19.488Z,99924.66
2022-07-31T08:58:25.792Z,99912.40
2022-07-31T08:59:30.125Z,99914.11
2022-07-31T09:00:34.800Z,99914.11
2022-07-31T09:01:38.943Z,99904.75
2022-07-31T09:02:47.097Z,99911.50
2022-07-31T09:03:51.129Z,99911.50
2022-07-31T09:04:56.665Z,99893.30
2022-07-31T09:06:03.815Z,99893.30
2022-07-31T09:07:11.039Z,99897.84
2022-07-31T09:08:16.525Z,99897.84
2022-07-31T09:09:20.512Z,99896.69
2022-07-31T09:10:30.822Z,99896.69
2022-07-31T09:11:36.283Z,99898.91
2022-07-31T09:12:40.368Z,99898.64
2022-07-31T09:14:01.466Z,99898.64
2022-07-31T09:15:02.888Z,99898.12
2022-07-31T09:16:07.397Z,99889.78
2022-07-31T09:17:11.432Z,99899.70
2022-07-31T09:18:19.913Z,99893.85
2022-07-31T09:19:51.982Z,99893.30
2022-07-31T09:20:33.145Z,99893.30
2022-07-31T09:21:44.824Z,99887.19
2022-07-31T09:22:50.897Z,99883.25
2022-07-31T09:23:56.605Z,99883.25
2022-07-31T09:25:08.611Z,99880.16
2022-07-31T09:26:15.798Z,99883.75
2022-07-31T09:27:21.575Z,99883.75
2022-07-31T09:28:34.319Z,99887.54
2022-07-31T09:29:40.384Z,99894.83
2022-07-31T09:30:57.162Z,99913.79
2022-07-31T09:32:15.960Z,99903.93
2022-07-31T09:33:20.600Z,99899.55
2022-07-31T09:34:29.259Z,99899.55
2022-07-31T09:35:38.209Z,99874.36
2022-07-31T09:36:42.843Z,99884.00
2022-07-31T09:37:50.047Z,99872.62
2022-07-31T09:38:55.567Z,99882.30
2022-07-31T09:40:02.830Z,99893.13
2022-07-31T09:41:56.926Z,99880.96
2022-07-31T09:42:23.186Z,99880.96
2022-07-31T09:43:31.689Z,99895.11
2022-07-31T09:44:41.655Z,99895.11
2022-07-31T09:45:48.014Z,99850.88
2022-07-31T09:46:52.471Z,99880.63
2022-07-31T09:48:09.664Z,99880.63
2022-07-31T09:49:15.989Z,99878.40
2022-07-31T09:50:26.450Z,99878.40
2022-07-31T09:51:32.212Z,99875.42
2022-07-31T09:52:36.218Z,99879.31
2022-07-31T09:53:43.682Z,99879.31
2022-07-31T09:54:48.414Z,99882.84
2022-07-31T09:55:55.468Z,99862.88
2022-07-31T09:57:01.584Z,99868.17
2022-07-31T09:58:05.813Z,99868.17
2022-07-31T09:59:11.656Z,99865.92
2022-07-31T10:00:17.415Z,99865.09
2022-07-31T10:01:28.207Z,99865.09
2022-07-31T10:02:30.814Z,99871.22
2022-07-31T10:03:39.534Z,99878.16
2022-07-31T10:04:44.230Z,99871.56
2022-07-31T10:05:49.741Z,99872.41
2022-07-31T10:06:56.362Z,99872.41
2022-07-31T10:08:01.868Z,99873.54
2022-07-31T10:09:07.770Z,99872.95
2022-07-31T10:10:14.865Z,99860.17
2022-07-31T10:11:20.735Z,99868.27
2022-07-31T10:12:29.637Z,99861.33
2022-07-31T10:13:36.392Z,99859.91
2022-07-31T10:14:45.263Z,99853.20
2022-07-31T10:15:54.249Z,99853.20
2022-07-31T10:17:01.309Z,99865.68
2022-07-31T10:18:07.651Z,99865.68
2022-07-31T10:19:14.267Z,99869.30
2022-07-31T10:20:21.424Z,99849.41
2022-07-31T10:21:28.432Z,99849.41
2022-07-31T10:22:34.642Z,99849.06
2022-07-31T10:23:48.371Z,99852.38
2022-07-31T10:24:52.624Z,99850.70
2022-07-31T10:25:59.105Z,99848.48
2022-07-31T10:27:09.525Z,99846.84
2022-07-31T10:28:12.862Z,99864.71
2022-07-31T10:29:18.842Z,99864.71
2022-07-31T10:30:29.023Z,99849.47
2022-07-31T10:31:36.088Z,99849.75
2022-07-31T10:32:54.749Z,99840.41
2022-07-31T10:33:55.576Z,99840.41
2022-07-31T10:35:00.348Z,99858.74
2022-07-31T10:36:13.282Z,99842.44
2022-07-31T10:37:25.565Z,99854.90
2022-07-31T10:38:38.557Z,99857.12
2022-07-31T10:39:45.659Z,99851.09
2022-07-31T10:40:55.626Z,99835.36
2022-07-31T10:42:18.091Z,99835.36
2022-07-31T10:43:45.972Z,99836.68
2022-07-31T10:44:52.963Z,99836.66
2022-07-31T10:45:57.181Z,99836.66
2022-07-31T10:47:03.099Z,99834.71
2022-07-31T10:48:10.285Z,99845.23
2022-07-31T10:49:14.514Z,99852.16
2022-07-31T10:50:25.342Z,99846.63
2022-07-31T10:51:29.428Z,99834.16
2022-07-31T10:52:38.478Z,99834.16
2022-07-31T10:53:51.391Z,99838.30
2022-07-31T10:54:49.742Z,99828.30
2022-07-31T10:56:03.329Z,99830.22
2022-07-31T10:57:07.807Z,99830.22
2022-07-31T10:58:14.421Z,99835.45
2022-07-31T10:59:21.378Z,99835.45
2022-07-31T11:00:28.302Z,99828.00
2022-07-31T11:01:35.233Z,99821.88
2022-07-31T11:02:40.925Z,99827.66
2022-07-31T11:03:47.802Z,99839.38
2022-07-31T11:04:57.518Z,99820.52
2022-07-31T11:06:02.894Z,99824.38
2022-07-31T11:07:09.366Z,99820.52
2022-07-31T11:08:15.520Z,99820.52
2022-07-31T11:09:27.236Z,99834.92
2022-07-31T11:10:31.951Z,99834.47
2022-07-31T11:11:37.728Z,99825.04
2022-07-31T11:12:41.823Z,99815.64
2022-07-31T11:13:54.576Z,99760.52
2022-07-31T11:14:58.612Z,99814.05
2022-07-31T11:16:06.471Z,99814.62
2022-07-31T11:17:12.082Z,99821.28
2022-07-31T11:18:27.520Z,99821.28
2022-07-31T11:19:31.235Z,99812.16
2022-07-31T11:20:37.045Z,99815.46
2022-07-31T11:21:44.277Z,99808.52
2022-07-31T11:23:03.046Z,99810.11
2022-07-31T11:24:21.525Z,99803.17
2022-07-31T11:25:27.113Z,99814.80
2022-07-31T11:26:32.986Z,99810.36
2022-07-31T11:27:37.750Z,99810.36
2022-07-31T11:28:44.204Z,99798.98
2022-07-31T11:29:59.629Z,99798.98
2022-07-31T11:31:03.254Z,99794.00
2022-07-31T11:32:17.285Z,99802.23
2022-07-31T11:33:41.543Z,99808.41
2022-07-31T11:34:50.081Z,99808.41
2022-07-31T11:35:54.189Z,99803.48
2022-07-31T11:36:58.905Z,99797.97
2022-07-31T11:38:05.042Z,99803.14
2022-07-31T11:39:23.743Z,99795.81
2022-07-31T11:40:27.486Z,99795.81
2022-07-31T11:41:30.862Z,99799.15
2022-07-31T11:42:39.190Z,99788.11
2022-07-31T11:43:57.538Z,99792.05
2022-07-31T11:45:10.900Z,99792.05
2022-07-31T11:46:16.613Z,99791.74
2022-07-31T11:47:27.891Z,99791.74
2022-07-31T11:48:27.821Z,99802.53
2022-07-31T11:49:47.675Z,99798.66
2022-07-31T11:50:46.965Z,99798.66
2022-07-31T11:51:55.519Z,99784.02
2022-07-31T11:53:04.499Z,99788.98
2022-07-31T11:54:08.687Z,99785.37
2022-07-31T11:55:15.490Z,99788.11
2022-07-31T11:56:22.238Z,99785.89
2022-07-31T11:57:52.013Z,99785.89
2022-07-31T11:58:35.431Z,99790.12
2022-07-31T11:59:45.182Z,99790.12
2022-07-31T12:00:57.108Z,99788.70
2022-07-31T12:02:09.994Z,99792.02
2022-07-31T12:03:16.624Z,99783.72
2022-07-31T12:04:20.645Z,99783.72
2022-07-31T12:05:35.255Z,99780.94
2022-07-31T12:06:34.780Z,99780.94
2022-07-31T12:07:40.374Z,99779.28
2022-07-31T12:08:43.283Z,99766.55
2022-07-31T12:10:01.899Z,99766.55
2022-07-31T12:11:02.093Z,99778.19
2022-07-31T12:12:07.070Z,99778.19
2022-07-31T12:13:15.977Z,99775.45
2022-07-31T12:14:29.530Z,99775.45
2022-07-31T12:15:33.588Z,99783.45
2022-07-31T12:16:41.778Z,99777.34
2022-07-31T12:17:48.808Z,99775.41
2022-07-31T12:18:58.026Z,99775.41
2022-07-31T12:20:06.934Z,99779.26
2022-07-31T12:21:22.025Z,99776.22
2022-07-31T12:22:26.521Z,99168.67
2022-07-31T12:23:41.891Z,99785.89
2022-07-31T12:24:46.665Z,99766.25
2022-07-31T12:25:53.405Z,99770.39
2022-07-31T12:27:00.356Z,99762.89
2022-07-31T12:28:04.684Z,99777.81
2022-07-31T12:29:11.178Z,99776.52
2022-07-31T12:30:17.520Z,99783.19
2022-07-31T12:31:22.937Z,99773.26
2022-07-31T12:32:30.033Z,99766.05
2022-07-31T12:33:46.864Z,99766.05
2022-07-31T12:34:52.141Z,99768.77
2022-07-31T12:36:24.754Z,99764.88
2022-07-31T12:37:12.042Z,99763.22
2022-07-31T12:38:45.180Z,99763.22
2022-07-31T12:39:53.736Z,99763.19
2022-07-31T12:40:43.702Z,99763.19
2022-07-31T12:41:52.844Z,99763.19
2022-07-31T12:42:56.960Z,99755.13
2022-07-31T12:44:14.869Z,99756.56
2022-07-31T12:45:32.051Z,99770.94
2022-07-31T12:46:37.558Z,99770.94
2022-07-31T12:47:44.639Z,99774.03
2022-07-31T12:48:51.701Z,99762.12
2022-07-31T12:50:05.970Z,99765.45
2022-07-31T12:51:45.415Z,99779.84
2022-07-31T12:52:12.660Z,99757.71